Time,TemperatureF,DewpointF,PressureIn,WindDirection,WindDirectionDegrees,WindSpeedMPH,WindSpeedGustMPH,Humidity,HourlyPrecipIn,Conditions,Clouds,dailyrainin,SoftwareType,DateUTC
2013-03-22 00:08:00,27.6,15.0,30.06,SE,124,0.0,4.0,59,0.00,,,0.00,weatherlink.com 1.10,2013-03-22 04:08:00,
2013-03-22 00:23:00,27.2,14.0,30.06,SE,124,0.0,2.0,59,0.00,,,0.00,weatherlink.com 1.10,2013-03-22 04:23:00,
2013-03-22 00:38:00,26.8,14.0,30.06,SE,126,4.0,4.0,60,0.00,,,0.00,weatherlink.com 1.10,2013-03-22 04:38:00,
2013-03-22 00:53:00,26.4,15.0,30.06,ESE,103,0.0,5.0,62,0.00,,,0.00,weatherlink.com 1.10,2013-03-22 04:53:00,
2013-03-22 01:08:00,26.3,15.0,30.06,ESE,103,0.0,2.0,63,0.00,,,0.00,weatherlink.com 1.10,2013-03-22 05:08:00,
2013-03-22 01:23:00,26.1,15.0,30.06,ESE,123,1.0,4.0,64,0.00,,,0.00,weatherlink.com 1.10,2013-03-22 05:23:00,
2013-03-22 01:38:00,25.6,15.0,30.05,SE,124,3.0,5.0,65,0.00,,,0.00,weatherlink.com 1.10,2013-03-22 05:38:00,
2013-03-22 01:53:00,25.0,16.0,30.05,ESE,113,0.0,4.0,68,0.00,,,0.00,weatherlink.com 1.10,2013-03-22 05:53:00,
2013-03-22 02:08:00,24.8,16.0,30.05,SE,146,0.0,2.0,68,0.00,,,0.00,weatherlink.com 1.10,2013-03-22 06:08:00,
2013-03-22 02:23:00,24.8,16.0,30.05,SE,146,1.0,2.0,68,0.00,,,0.00,weatherlink.com 1.10,2013-03-22 06:23:00,
2013-03-22 02:38:00,24.4,15.0,30.05,ESE,122,0.0,4.0,68,0.00,,,0.00,weatherlink.com 1.10,2013-03-22 06:38:00,
2013-03-22 02:53:00,24.3,15.0,30.06,SE,124,0.0,1.0,69,0.00,,,0.00,weatherlink.com 1.10,2013-03-22 06:53:00,
2013-03-22 03:08:00,24.0,16.0,30.05,SE,124,0.0,1.0,71,0.00,,,0.00,weatherlink.com 1.10,2013-03-22 07:08:00,
2013-03-22 03:23:00,23.9,16.0,30.05,SE,124,0.0,2.0,72,0.00,,,0.00,weatherlink.com 1.10,2013-03-22 07:23:00,
2013-03-22 03:38:00,23.8,16.0,30.05,SE,124,0.0,1.0,71,0.00,,,0.00,weatherlink.com 1.10,2013-03-22 07:38:00,
2013-03-22 03:53:00,23.6,16.0,30.06,SE,131,0.0,3.0,72,0.00,,,0.00,weatherlink.com 1.10,2013-03-22 07:53:00,
2013-03-22 04:08:00,23.4,16.0,30.05,SE,124,1.0,3.0,74,0.00,,,0.00,weatherlink.com 1.10,2013-03-22 08:08:00,
2013-03-22 04:23:00,23.0,16.0,30.05,SE,130,0.0,3.0,75,0.00,,,0.00,weatherlink.com 1.10,2013-03-22 08:23:00,
2013-03-22 04:38:00,22.8,16.0,30.05,SE,130,1.0,2.0,76,0.00,,,0.00,weatherlink.com 1.10,2013-03-22 08:38:00,
2013-03-22 04:53:00,22.5,16.0,30.06,SE,132,0.0,3.0,77,0.00,,,0.00,weatherlink.com 1.10,2013-03-22 08:53:00,
2013-03-22 05:08:00,22.2,16.0,30.06,SSE,155,0.0,3.0,78,0.00,,,0.00,weatherlink.com 1.10,2013-03-22 09:08:00,
2013-03-22 05:23:00,22.0,16.0,30.06,SSE,155,0.0,1.0,79,0.00,,,0.00,weatherlink.com 1.10,2013-03-22 09:23:00,
2013-03-22 05:38:00,21.8,17.0,30.06,SE,143,1.0,3.0,80,0.00,,,0.00,weatherlink.com 1.10,2013-03-22 09:38:00,
2013-03-22 05:53:00,21.6,16.0,30.06,SE,125,0.0,2.0,80,0.00,,,0.00,weatherlink.com 1.10,2013-03-22 09:53:00,
2013-03-22 06:08:00,21.6,16.0,30.06,SE,124,0.0,4.0,80,0.00,,,0.00,weatherlink.com 1.10,2013-03-22 10:08:00,
2013-03-22 06:23:00,21.4,16.0,30.07,SSE,150,2.0,2.0,81,0.00,,,0.00,weatherlink.com 1.10,2013-03-22 10:23:00,
2013-03-22 06:39:00,21.4,16.0,30.07,SSE,150,0.0,2.0,80,0.00,,,0.00,weatherlink.com 1.10,2013-03-22 10:39:00,
2013-03-22 06:54:00,21.3,16.0,30.07,SSE,150,0.0,3.0,81,0.00,,,0.00,weatherlink.com 1.10,2013-03-22 10:54:00,
2013-03-22 07:09:00,21.2,17.0,30.08,SSE,148,1.0,3.0,82,0.00,,,0.00,weatherlink.com 1.10,2013-03-22 11:09:00,
2013-03-22 07:24:00,21.1,16.0,30.08,SE,132,1.0,3.0,82,0.00,,,0.00,weatherlink.com 1.10,2013-03-22 11:24:00,
2013-03-22 07:39:00,20.9,16.0,30.09,SE,134,2.0,3.0,82,0.00,,,0.00,weatherlink.com 1.10,2013-03-22 11:39:00,
2013-03-22 07:54:00,21.1,16.0,30.09,SSE,163,1.0,3.0,82,0.00,,,0.00,weatherlink.com 1.10,2013-03-22 11:54:00,
2013-03-22 08:09:00,21.0,16.0,30.10,SE,140,0.0,4.0,82,0.00,,,0.00,weatherlink.com 1.10,2013-03-22 12:09:00,
2013-03-22 08:24:00,21.1,17.0,30.10,SE,139,1.0,3.0,83,0.00,,,0.00,weatherlink.com 1.10,2013-03-22 12:24:00,
2013-03-22 08:39:00,21.5,17.0,30.11,ESE,123,1.0,3.0,83,0.00,,,0.00,weatherlink.com 1.10,2013-03-22 12:39:00,
2013-03-22 08:54:00,22.4,17.0,30.11,ESE,123,1.0,1.0,81,0.00,,,0.00,weatherlink.com 1.10,2013-03-22 12:54:00,
2013-03-22 09:09:00,23.9,19.0,30.11,SE,125,0.0,4.0,80,0.00,,,0.00,weatherlink.com 1.10,2013-03-22 13:09:00,
2013-03-22 09:24:00,25.5,18.0,30.11,SE,125,0.0,1.0,73,0.00,,,0.00,weatherlink.com 1.10,2013-03-22 13:24:00,
2013-03-22 09:39:00,28.0,17.0,30.10,South,175,2.0,3.0,64,0.00,,,0.00,weatherlink.com 1.10,2013-03-22 13:39:00,
2013-03-22 09:54:00,28.7,16.0,30.10,South,188,1.0,3.0,60,0.00,,,0.00,weatherlink.com 1.10,2013-03-22 13:54:00,
2013-03-22 10:09:00,31.0,17.0,30.10,South,178,0.0,4.0,57,0.00,,,0.00,weatherlink.com 1.10,2013-03-22 14:09:00,
2013-03-22 10:24:00,31.1,16.0,30.10,SE,132,0.0,5.0,53,0.00,,,0.00,weatherlink.com 1.10,2013-03-22 14:24:00,
2013-03-22 10:39:00,32.7,16.0,30.10,South,175,4.0,4.0,51,0.00,,,0.00,weatherlink.com 1.10,2013-03-22 14:39:00,
2013-03-22 10:55:00,32.4,15.0,30.09,WSW,249,1.0,5.0,48,0.00,,,0.00,weatherlink.com 1.10,2013-03-22 14:55:00,
2013-03-22 11:09:00,33.2,15.0,30.09,South,171,5.0,6.0,47,0.00,,,0.00,weatherlink.com 1.10,2013-03-22 15:09:00,
2013-03-22 11:24:00,34.1,15.0,30.09,SW,229,3.0,7.0,46,0.00,,,0.00,weatherlink.com 1.10,2013-03-22 15:24:00,
2013-03-22 11:39:00,34.3,15.0,30.09,SSE,148,2.0,8.0,46,0.00,,,0.00,weatherlink.com 1.10,2013-03-22 15:39:00,
2013-03-22 11:54:00,34.7,15.0,30.09,SSW,198,5.0,9.0,44,0.00,,,0.00,weatherlink.com 1.10,2013-03-22 15:54:00,
2013-03-22 12:09:00,36.1,15.0,30.09,SSW,206,0.0,3.0,43,0.00,,,0.00,weatherlink.com 1.10,2013-03-22 16:09:00,
2013-03-22 12:25:00,36.0,15.0,30.09,South,175,1.0,8.0,42,0.00,,,0.00,weatherlink.com 1.10,2013-03-22 16:25:00,
2013-03-22 12:40:00,37.3,15.0,30.08,SSW,200,1.0,7.0,41,0.00,,,0.00,weatherlink.com 1.10,2013-03-22 16:40:00,
2013-03-22 12:55:00,36.7,15.0,30.08,South,186,1.0,9.0,41,0.00,,,0.00,weatherlink.com 1.10,2013-03-22 16:55:00,
2013-03-22 13:10:00,38.1,16.0,30.07,SW,217,2.0,4.0,41,0.00,,,0.00,weatherlink.com 1.10,2013-03-22 17:10:00,
2013-03-22 13:25:00,38.8,16.0,30.07,North,350,0.0,12.0,39,0.00,,,0.00,weatherlink.com 1.10,2013-03-22 17:25:00,
2013-03-22 13:40:00,39.8,14.0,30.06,South,184,1.0,8.0,35,0.00,,,0.00,weatherlink.com 1.10,2013-03-22 17:40:00,
2013-03-22 13:55:00,40.5,15.0,30.06,NW,306,3.0,8.0,35,0.00,,,0.00,weatherlink.com 1.10,2013-03-22 17:55:00,
2013-03-22 14:10:00,41.0,15.0,30.05,SSW,196,0.0,7.0,35,0.00,,,0.00,weatherlink.com 1.10,2013-03-22 18:10:00,
2013-03-22 14:25:00,42.0,16.0,30.04,NW,320,4.0,5.0,35,0.00,,,0.00,weatherlink.com 1.10,2013-03-22 18:25:00,
2013-03-22 14:40:00,42.2,15.0,30.04,SW,225,2.0,8.0,33,0.00,,,0.00,weatherlink.com 1.10,2013-03-22 18:40:00,
2013-03-22 14:55:00,42.0,15.0,30.03,South,185,4.0,8.0,33,0.00,,,0.00,weatherlink.com 1.10,2013-03-22 18:55:00,
2013-03-22 15:10:00,43.1,16.0,30.02,WSW,240,1.0,7.0,33,0.00,,,0.00,weatherlink.com 1.10,2013-03-22 19:10:00,
2013-03-22 15:25:00,43.0,17.0,30.02,WSW,255,1.0,7.0,35,0.00,,,0.00,weatherlink.com 1.10,2013-03-22 19:25:00,
2013-03-22 15:40:00,43.2,14.0,30.02,NNW,329,2.0,7.0,31,0.00,,,0.00,weatherlink.com 1.10,2013-03-22 19:40:00,
2013-03-22 15:55:00,43.5,18.0,30.01,WSW,238,6.0,9.0,36,0.00,,,0.00,weatherlink.com 1.10,2013-03-22 19:55:00,
2013-03-22 16:10:00,43.8,16.0,30.01,ESE,110,0.0,7.0,32,0.00,,,0.00,weatherlink.com 1.10,2013-03-22 20:10:00,
2013-03-22 16:25:00,44.1,17.0,30.00,SSW,199,4.0,7.0,33,0.00,,,0.00,weatherlink.com 1.10,2013-03-22 20:25:00,
2013-03-22 16:40:00,43.8,15.0,30.00,WNW,284,4.0,6.0,31,0.00,,,0.00,weatherlink.com 1.10,2013-03-22 20:40:00,
2013-03-22 16:55:00,44.9,16.0,30.00,WSW,245,0.0,5.0,31,0.00,,,0.00,weatherlink.com 1.10,2013-03-22 20:55:00,
2013-03-22 17:10:00,46.4,16.0,30.00,SSW,205,4.0,5.0,29,0.00,,,0.00,weatherlink.com 1.10,2013-03-22 21:10:00,
2013-03-22 17:25:00,46.5,16.0,30.00,South,182,1.0,4.0,29,0.00,,,0.00,weatherlink.com 1.10,2013-03-22 21:25:00,
2013-03-22 17:40:00,46.7,16.0,29.99,SW,222,3.0,5.0,29,0.00,,,0.00,weatherlink.com 1.10,2013-03-22 21:40:00,
2013-03-22 17:55:00,46.2,15.0,29.99,SSW,211,0.0,8.0,29,0.00,,,0.00,weatherlink.com 1.10,2013-03-22 21:55:00,
2013-03-22 18:10:00,47.1,15.0,29.99,SSE,165,1.0,6.0,28,0.00,,,0.00,weatherlink.com 1.10,2013-03-22 22:10:00,
2013-03-22 18:25:00,46.5,14.0,29.99,WSW,238,3.0,5.0,27,0.00,,,0.00,weatherlink.com 1.10,2013-03-22 22:25:00,
2013-03-22 18:40:00,46.9,14.0,30.00,WSW,243,4.0,4.0,27,0.00,,,0.00,weatherlink.com 1.10,2013-03-22 22:40:00,
2013-03-22 18:55:00,46.3,14.0,30.00,SSW,192,2.0,4.0,27,0.00,,,0.00,weatherlink.com 1.10,2013-03-22 22:55:00,
2013-03-22 19:10:00,45.8,14.0,30.01,West,261,1.0,5.0,28,0.00,,,0.00,weatherlink.com 1.10,2013-03-22 23:10:00,
2013-03-22 19:25:00,45.8,15.0,30.01,SW,218,0.0,5.0,29,0.00,,,0.00,weatherlink.com 1.10,2013-03-22 23:25:00,
2013-03-22 19:40:00,45.3,15.0,30.01,WNW,288,1.0,3.0,30,0.00,,,0.00,weatherlink.com 1.10,2013-03-22 23:40:00,
2013-03-22 19:55:00,44.3,16.0,30.02,WSW,238,0.0,3.0,32,0.00,,,0.00,weatherlink.com 1.10,2013-03-22 23:55:00,
2013-03-22 20:10:00,43.8,17.0,30.02,WSW,238,0.0,0.0,34,0.00,,,0.00,weatherlink.com 1.10,2013-03-23 00:10:00,
2013-03-22 20:25:00,41.5,17.0,30.02,WSW,238,0.0,0.0,37,0.00,,,0.00,weatherlink.com 1.10,2013-03-23 00:25:00,
2013-03-22 20:40:00,40.1,17.0,30.02,WSW,238,0.0,0.0,40,0.00,,,0.00,weatherlink.com 1.10,2013-03-23 00:40:00,
2013-03-22 20:55:00,39.7,19.0,30.03,WSW,238,0.0,2.0,43,0.00,,,0.00,weatherlink.com 1.10,2013-03-23 00:55:00,
2013-03-22 21:10:00,39.2,19.0,30.04,WSW,238,0.0,0.0,45,0.00,,,0.00,weatherlink.com 1.10,2013-03-23 01:10:00,
2013-03-22 21:25:00,38.6,20.0,30.04,WSW,238,0.0,0.0,47,0.00,,,0.00,weatherlink.com 1.10,2013-03-23 01:25:00,
2013-03-22 21:40:00,37.8,20.0,30.04,WSW,238,0.0,0.0,48,0.00,,,0.00,weatherlink.com 1.10,2013-03-23 01:40:00,
2013-03-22 21:55:00,36.6,19.0,30.04,WSW,238,0.0,2.0,49,0.00,,,0.00,weatherlink.com 1.10,2013-03-23 01:55:00,
2013-03-22 22:11:00,36.3,21.0,30.03,WSW,238,0.0,1.0,55,0.00,,,0.00,weatherlink.com 1.10,2013-03-23 02:11:00,
2013-03-22 22:26:00,35.9,23.0,30.04,WSW,238,0.0,2.0,59,0.00,,,0.00,weatherlink.com 1.10,2013-03-23 02:26:00,
2013-03-22 22:41:00,35.5,22.0,30.05,WSW,238,0.0,1.0,58,0.00,,,0.00,weatherlink.com 1.10,2013-03-23 02:41:00,
2013-03-22 22:56:00,35.0,21.0,30.05,WSW,238,0.0,1.0,57,0.00,,,0.00,weatherlink.com 1.10,2013-03-23 02:56:00,
2013-03-22 23:11:00,34.6,21.0,30.04,WSW,238,0.0,1.0,57,0.00,,,0.00,weatherlink.com 1.10,2013-03-23 03:11:00,
2013-03-22 23:26:00,34.0,21.0,30.05,SW,214,0.0,1.0,60,0.00,,,0.00,weatherlink.com 1.10,2013-03-23 03:26:00,
2013-03-22 23:41:00,33.6,22.0,30.05,SSW,211,0.0,1.0,62,0.00,,,0.00,weatherlink.com 1.10,2013-03-23 03:41:00,
2013-03-22 23:56:00,33.0,21.0,30.05,SSW,205,0.0,2.0,62,0.00,,,0.00,weatherlink.com 1.10,2013-03-23 03:56:00,